Austin, Kentucky
Current Conditions -  °F | °C
As of 9:15 PM on Monday 26 Jan 2015 (Local Time) from KGLW Reporting Station
Haze Haze  
Wind Chill: 29°   Ceiling: 4200
Heat Index: 29°   Visibility: 5mi
Dew Point: 29°   Wind: 0mph
Humidity: 100%   Direction: NA
Pressure: 29.96"   Gusts: NA
Location:  36.83°N, 86.02°W
Report Text: KGLW 270315Z AUTO 00000KT 5SM BR SCT005 SCT026 OVC042 M01/M01 A2996 RMK AO2 T10151015
Loading
Personal Weather Stations






























Interactive Weather Map New forecast layout! Learn more

10-Day Weather Forecast

Advertisements
Track Severe Weather on mobile